Nashville, Tennessee
Traffic Map
Current Weather Conditions
Nashville, Tennessee
Overcast Haze
Overcast
57°
Feels Like: 57°
Wind Chill: 57° Ceiling: 8000
Heat Index: 57° Visibility: 4mi
Dew Point: 54° Wind: 5mph
Humidity: 89% Direction: 30° (NNE)
Pressure: 29.91in Gusts: 0mph
Raw Report DataKBNA 220753Z 03004KT 4SM BR OVC080 14/12 A2991 RMK AO2 SLP126 T01390122
Traffic Incident Summary
Active as of:
Severity:
Category:
InformationThere was an issue retrieving the traffic information for this location. Please try a different location or try again shortly.
Advertisements
Track Severe Weather on mobile